sensor_id;sensor_type;location;lat;lon;timestamp;P1;durP1;ratioP1;P2;durP2;ratioP2
52894;SDS011;38759;53.396;6.722;2023-04-23T00:01:34;20.67;;;11.18;;
52894;SDS011;38759;53.396;6.722;2023-04-23T00:04:03;24.63;;;11.05;;
52894;SDS011;38759;53.396;6.722;2023-04-23T00:06:32;21.65;;;11.30;;
52894;SDS011;38759;53.396;6.722;2023-04-23T00:08:59;23.70;;;11.30;;
52894;SDS011;38759;53.396;6.722;2023-04-23T00:11:25;22.08;;;11.40;;
52894;SDS011;38759;53.396;6.722;2023-04-23T00:13:51;22.90;;;11.48;;
52894;SDS011;38759;53.396;6.722;2023-04-23T00:16:18;24.15;;;12.38;;
52894;SDS011;38759;53.396;6.722;2023-04-23T00:18:44;25.40;;;10.88;;
52894;SDS011;38759;53.396;6.722;2023-04-23T00:21:10;19.48;;;10.60;;
52894;SDS011;38759;53.396;6.722;2023-04-23T00:23:36;19.58;;;10.85;;
52894;SDS011;38759;53.396;6.722;2023-04-23T00:26:03;24.85;;;11.82;;
52894;SDS011;38759;53.396;6.722;2023-04-23T00:28:29;25.20;;;12.02;;
52894;SDS011;38759;53.396;6.722;2023-04-23T00:30:54;23.77;;;11.55;;
52894;SDS011;38759;53.396;6.722;2023-04-23T00:33:20;26.30;;;12.60;;
52894;SDS011;38759;53.396;6.722;2023-04-23T00:35:46;28.10;;;13.07;;
52894;SDS011;38759;53.396;6.722;2023-04-23T00:38:11;24.35;;;12.55;;
52894;SDS011;38759;53.396;6.722;2023-04-23T00:40:37;23.73;;;13.38;;
52894;SDS011;38759;53.396;6.722;2023-04-23T00:43:03;24.38;;;12.88;;
52894;SDS011;38759;53.396;6.722;2023-04-23T00:45:29;34.08;;;12.90;;
52894;SDS011;38759;53.396;6.722;2023-04-23T00:47:55;35.97;;;13.00;;
52894;SDS011;38759;53.396;6.722;2023-04-23T00:50:22;28.52;;;13.90;;
52894;SDS011;38759;53.396;6.722;2023-04-23T00:52:47;24.77;;;13.63;;
52894;SDS011;38759;53.396;6.722;2023-04-23T00:55:13;24.83;;;12.82;;
52894;SDS011;38759;53.396;6.722;2023-04-23T00:57:38;24.73;;;13.55;;
52894;SDS011;38759;53.396;6.722;2023-04-23T01:00:05;23.60;;;12.75;;
52894;SDS011;38759;53.396;6.722;2023-04-23T01:02:31;24.08;;;12.70;;
52894;SDS011;38759;53.396;6.722;2023-04-23T01:04:59;26.08;;;13.18;;
52894;SDS011;38759;53.396;6.722;2023-04-23T01:07:27;27.70;;;12.75;;
52894;SDS011;38759;53.396;6.722;2023-04-23T01:09:53;26.50;;;12.75;;
52894;SDS011;38759;53.396;6.722;2023-04-23T01:12:19;23.65;;;13.63;;
52894;SDS011;38759;53.396;6.722;2023-04-23T01:14:45;23.58;;;12.52;;
52894;SDS011;38759;53.396;6.722;2023-04-23T01:17:11;27.55;;;14.25;;
52894;SDS011;38759;53.396;6.722;2023-04-23T01:19:37;30.13;;;14.13;;
52894;SDS011;38759;53.396;6.722;2023-04-23T01:22:13;27.42;;;13.63;;
52894;SDS011;38759;53.396;6.722;2023-04-23T01:24:40;29.35;;;13.95;;
52894;SDS011;38759;53.396;6.722;2023-04-23T01:27:09;30.83;;;15.68;;
52894;SDS011;38759;53.396;6.722;2023-04-23T01:29:35;31.35;;;16.20;;
52894;SDS011;38759;53.396;6.722;2023-04-23T01:32:02;30.73;;;15.60;;
52894;SDS011;38759;53.396;6.722;2023-04-23T01:34:31;30.45;;;16.30;;
52894;SDS011;38759;53.396;6.722;2023-04-23T01:36:57;30.25;;;15.80;;
52894;SDS011;38759;53.396;6.722;2023-04-23T01:39:23;31.23;;;16.50;;
52894;SDS011;38759;53.396;6.722;2023-04-23T01:41:49;65.40;;;18.38;;
52894;SDS011;38759;53.396;6.722;2023-04-23T01:44:16;66.00;;;17.75;;
52894;SDS011;38759;53.396;6.722;2023-04-23T01:46:42;72.20;;;20.23;;
52894;SDS011;38759;53.396;6.722;2023-04-23T01:49:07;120.30;;;19.73;;
52894;SDS011;38759;53.396;6.722;2023-04-23T01:51:33;127.53;;;21.42;;
52894;SDS011;38759;53.396;6.722;2023-04-23T01:53:59;94.82;;;19.00;;
52894;SDS011;38759;53.396;6.722;2023-04-23T01:56:26;186.90;;;20.98;;
52894;SDS011;38759;53.396;6.722;2023-04-23T01:58:52;162.60;;;19.80;;
52894;SDS011;38759;53.396;6.722;2023-04-23T02:01:18;247.20;;;21.27;;
52894;SDS011;38759;53.396;6.722;2023-04-23T02:03:44;114.60;;;19.92;;
52894;SDS011;38759;53.396;6.722;2023-04-23T02:06:11;226.23;;;21.98;;
52894;SDS011;38759;53.396;6.722;2023-04-23T02:08:37;219.70;;;23.80;;
52894;SDS011;38759;53.396;6.722;2023-04-23T02:11:06;257.67;;;22.08;;
52894;SDS011;38759;53.396;6.722;2023-04-23T02:13:32;297.80;;;22.95;;
52894;SDS011;38759;53.396;6.722;2023-04-23T02:15:59;171.38;;;20.80;;
52894;SDS011;38759;53.396;6.722;2023-04-23T02:18:25;182.98;;;24.23;;
52894;SDS011;38759;53.396;6.722;2023-04-23T02:20:51;145.57;;;21.77;;
52894;SDS011;38759;53.396;6.722;2023-04-23T02:23:16;85.68;;;21.92;;
52894;SDS011;38759;53.396;6.722;2023-04-23T02:25:42;154.38;;;22.75;;
52894;SDS011;38759;53.396;6.722;2023-04-23T02:28:08;91.03;;;21.50;;
52894;SDS011;38759;53.396;6.722;2023-04-23T02:30:37;95.47;;;20.15;;
52894;SDS011;38759;53.396;6.722;2023-04-23T02:33:04;65.47;;;20.10;;
52894;SDS011;38759;53.396;6.722;2023-04-23T02:35:30;53.30;;;20.02;;
52894;SDS011;38759;53.396;6.722;2023-04-23T02:37:55;67.00;;;19.85;;
52894;SDS011;38759;53.396;6.722;2023-04-23T02:40:21;76.68;;;22.05;;
52894;SDS011;38759;53.396;6.722;2023-04-23T02:42:47;63.65;;;18.98;;
52894;SDS011;38759;53.396;6.722;2023-04-23T02:45:13;43.72;;;19.15;;
52894;SDS011;38759;53.396;6.722;2023-04-23T02:47:39;54.83;;;19.23;;
52894;SDS011;38759;53.396;6.722;2023-04-23T02:50:05;61.45;;;21.10;;
52894;SDS011;38759;53.396;6.722;2023-04-23T02:52:32;68.00;;;19.20;;
52894;SDS011;38759;53.396;6.722;2023-04-23T02:54:58;162.90;;;23.65;;
52894;SDS011;38759;53.396;6.722;2023-04-23T02:57:26;52.20;;;23.65;;
52894;SDS011;38759;53.396;6.722;2023-04-23T02:59:52;46.45;;;21.95;;
52894;SDS011;38759;53.396;6.722;2023-04-23T03:02:18;116.18;;;24.88;;
52894;SDS011;38759;53.396;6.722;2023-04-23T03:04:43;54.15;;;21.23;;
52894;SDS011;38759;53.396;6.722;2023-04-23T03:07:10;52.72;;;23.13;;
52894;SDS011;38759;53.396;6.722;2023-04-23T03:09:37;51.63;;;24.13;;
52894;SDS011;38759;53.396;6.722;2023-04-23T03:12:03;49.50;;;22.27;;
52894;SDS011;38759;53.396;6.722;2023-04-23T03:14:29;52.63;;;23.67;;
52894;SDS011;38759;53.396;6.722;2023-04-23T03:16:54;53.63;;;22.85;;
52894;SDS011;38759;53.396;6.722;2023-04-23T03:19:20;56.65;;;22.95;;
52894;SDS011;38759;53.396;6.722;2023-04-23T03:21:46;49.03;;;22.95;;
52894;SDS011;38759;53.396;6.722;2023-04-23T03:24:12;48.85;;;20.75;;
52894;SDS011;38759;53.396;6.722;2023-04-23T03:26:39;55.97;;;22.38;;
52894;SDS011;38759;53.396;6.722;2023-04-23T03:29:05;49.42;;;22.73;;
52894;SDS011;38759;53.396;6.722;2023-04-23T03:31:31;51.45;;;23.00;;
52894;SDS011;38759;53.396;6.722;2023-04-23T03:33:57;52.40;;;23.05;;
52894;SDS011;38759;53.396;6.722;2023-04-23T03:36:22;57.72;;;24.77;;
52894;SDS011;38759;53.396;6.722;2023-04-23T03:38:48;48.97;;;23.20;;
52894;SDS011;38759;53.396;6.722;2023-04-23T03:41:13;47.83;;;22.05;;
52894;SDS011;38759;53.396;6.722;2023-04-23T03:43:39;48.05;;;22.88;;
52894;SDS011;38759;53.396;6.722;2023-04-23T03:46:05;52.80;;;22.00;;
52894;SDS011;38759;53.396;6.722;2023-04-23T03:48:30;51.00;;;23.02;;
52894;SDS011;38759;53.396;6.722;2023-04-23T03:50:56;49.80;;;23.15;;
52894;SDS011;38759;53.396;6.722;2023-04-23T03:53:22;53.78;;;21.98;;
52894;SDS011;38759;53.396;6.722;2023-04-23T03:55:48;44.17;;;21.52;;
52894;SDS011;38759;53.396;6.722;2023-04-23T03:58:13;43.92;;;20.55;;
52894;SDS011;38759;53.396;6.722;2023-04-23T04:00:39;53.20;;;21.10;;
52894;SDS011;38759;53.396;6.722;2023-04-23T04:03:05;45.28;;;20.60;;
52894;SDS011;38759;53.396;6.722;2023-04-23T04:05:33;44.92;;;19.38;;
52894;SDS011;38759;53.396;6.722;2023-04-23T04:07:59;44.28;;;18.55;;
52894;SDS011;38759;53.396;6.722;2023-04-23T04:10:25;63.22;;;18.48;;
52894;SDS011;38759;53.396;6.722;2023-04-23T04:12:51;38.05;;;18.15;;
52894;SDS011;38759;53.396;6.722;2023-04-23T04:15:19;63.60;;;17.02;;
52894;SDS011;38759;53.396;6.722;2023-04-23T04:17:45;32.75;;;17.60;;
52894;SDS011;38759;53.396;6.722;2023-04-23T04:20:10;49.05;;;18.00;;
52894;SDS011;38759;53.396;6.722;2023-04-23T04:22:36;40.88;;;20.13;;
52894;SDS011;38759;53.396;6.722;2023-04-23T04:25:03;39.13;;;19.52;;
52894;SDS011;38759;53.396;6.722;2023-04-23T04:27:29;42.60;;;19.80;;
52894;SDS011;38759;53.396;6.722;2023-04-23T04:29:58;44.28;;;20.70;;
52894;SDS011;38759;53.396;6.722;2023-04-23T04:32:25;41.75;;;21.20;;
52894;SDS011;38759;53.396;6.722;2023-04-23T04:34:51;47.83;;;22.48;;
52894;SDS011;38759;53.396;6.722;2023-04-23T04:37:18;48.63;;;23.05;;
52894;SDS011;38759;53.396;6.722;2023-04-23T04:39:45;53.30;;;23.67;;
52894;SDS011;38759;53.396;6.722;2023-04-23T04:42:11;50.03;;;22.92;;
52894;SDS011;38759;53.396;6.722;2023-04-23T04:44:37;51.40;;;23.95;;
52894;SDS011;38759;53.396;6.722;2023-04-23T04:47:03;54.78;;;25.98;;
52894;SDS011;38759;53.396;6.722;2023-04-23T04:49:30;53.67;;;23.88;;
52894;SDS011;38759;53.396;6.722;2023-04-23T04:51:56;54.85;;;24.88;;
52894;SDS011;38759;53.396;6.722;2023-04-23T04:54:21;53.05;;;23.58;;
52894;SDS011;38759;53.396;6.722;2023-04-23T04:56:47;57.10;;;24.45;;
52894;SDS011;38759;53.396;6.722;2023-04-23T04:59:13;49.97;;;22.90;;
52894;SDS011;38759;53.396;6.722;2023-04-23T05:01:38;62.63;;;23.48;;
52894;SDS011;38759;53.396;6.722;2023-04-23T05:04:05;57.90;;;26.13;;
52894;SDS011;38759;53.396;6.722;2023-04-23T05:06:30;54.22;;;24.02;;
52894;SDS011;38759;53.396;6.722;2023-04-23T05:08:57;61.83;;;26.85;;
52894;SDS011;38759;53.396;6.722;2023-04-23T05:11:22;68.75;;;28.58;;
52894;SDS011;38759;53.396;6.722;2023-04-23T05:13:48;72.82;;;28.77;;
52894;SDS011;38759;53.396;6.722;2023-04-23T05:16:14;73.60;;;30.45;;
52894;SDS011;38759;53.396;6.722;2023-04-23T05:18:40;77.70;;;30.40;;
52894;SDS011;38759;53.396;6.722;2023-04-23T05:21:06;83.47;;;33.47;;
52894;SDS011;38759;53.396;6.722;2023-04-23T05:23:32;81.00;;;30.77;;
52894;SDS011;38759;53.396;6.722;2023-04-23T05:25:58;75.13;;;29.95;;
52894;SDS011;38759;53.396;6.722;2023-04-23T05:28:24;82.15;;;32.83;;
52894;SDS011;38759;53.396;6.722;2023-04-23T05:30:50;81.80;;;32.10;;
52894;SDS011;38759;53.396;6.722;2023-04-23T05:33:16;86.97;;;31.10;;
52894;SDS011;38759;53.396;6.722;2023-04-23T05:35:42;92.72;;;34.70;;
52894;SDS011;38759;53.396;6.722;2023-04-23T05:38:08;92.78;;;34.78;;
52894;SDS011;38759;53.396;6.722;2023-04-23T05:40:34;87.72;;;35.78;;
52894;SDS011;38759;53.396;6.722;2023-04-23T05:43:00;95.60;;;37.47;;
52894;SDS011;38759;53.396;6.722;2023-04-23T05:45:26;103.75;;;37.17;;
52894;SDS011;38759;53.396;6.722;2023-04-23T05:47:52;98.40;;;36.15;;
52894;SDS011;38759;53.396;6.722;2023-04-23T05:50:20;107.65;;;39.95;;
52894;SDS011;38759;53.396;6.722;2023-04-23T05:52:46;94.10;;;36.50;;
52894;SDS011;38759;53.396;6.722;2023-04-23T05:55:12;112.85;;;39.38;;
52894;SDS011;38759;53.396;6.722;2023-04-23T05:57:39;106.05;;;37.38;;
52894;SDS011;38759;53.396;6.722;2023-04-23T06:00:06;105.00;;;37.25;;
52894;SDS011;38759;53.396;6.722;2023-04-23T06:02:36;104.25;;;37.30;;
52894;SDS011;38759;53.396;6.722;2023-04-23T06:05:02;111.88;;;38.35;;
52894;SDS011;38759;53.396;6.722;2023-04-23T06:07:28;113.70;;;39.47;;
52894;SDS011;38759;53.396;6.722;2023-04-23T06:09:53;113.88;;;39.55;;
52894;SDS011;38759;53.396;6.722;2023-04-23T06:12:19;99.68;;;36.88;;
52894;SDS011;38759;53.396;6.722;2023-04-23T06:14:45;108.53;;;37.38;;
52894;SDS011;38759;53.396;6.722;2023-04-23T06:17:11;106.32;;;38.85;;
52894;SDS011;38759;53.396;6.722;2023-04-23T06:19:37;125.75;;;39.58;;
52894;SDS011;38759;53.396;6.722;2023-04-23T06:22:03;118.53;;;40.17;;
52894;SDS011;38759;53.396;6.722;2023-04-23T06:24:29;114.22;;;38.70;;
52894;SDS011;38759;53.396;6.722;2023-04-23T06:26:54;126.30;;;43.67;;
52894;SDS011;38759;53.396;6.722;2023-04-23T06:29:20;111.05;;;37.67;;
52894;SDS011;38759;53.396;6.722;2023-04-23T06:31:46;126.20;;;42.08;;
52894;SDS011;38759;53.396;6.722;2023-04-23T06:34:11;115.90;;;41.30;;
52894;SDS011;38759;53.396;6.722;2023-04-23T06:36:37;126.07;;;41.85;;
52894;SDS011;38759;53.396;6.722;2023-04-23T06:39:03;130.73;;;44.63;;
52894;SDS011;38759;53.396;6.722;2023-04-23T06:41:29;113.55;;;40.05;;
52894;SDS011;38759;53.396;6.722;2023-04-23T06:43:54;120.18;;;41.10;;
52894;SDS011;38759;53.396;6.722;2023-04-23T06:46:20;110.43;;;41.42;;
52894;SDS011;38759;53.396;6.722;2023-04-23T06:48:46;121.95;;;43.17;;
52894;SDS011;38759;53.396;6.722;2023-04-23T06:51:11;111.55;;;41.15;;
52894;SDS011;38759;53.396;6.722;2023-04-23T06:53:37;109.72;;;41.10;;
52894;SDS011;38759;53.396;6.722;2023-04-23T06:56:04;109.13;;;39.80;;
52894;SDS011;38759;53.396;6.722;2023-04-23T06:58:29;118.97;;;42.90;;
52894;SDS011;38759;53.396;6.722;2023-04-23T07:00:59;116.75;;;41.00;;
52894;SDS011;38759;53.396;6.722;2023-04-23T07:03:28;123.75;;;43.10;;
52894;SDS011;38759;53.396;6.722;2023-04-23T07:05:54;111.53;;;42.47;;
52894;SDS011;38759;53.396;6.722;2023-04-23T07:08:19;114.85;;;42.80;;
52894;SDS011;38759;53.396;6.722;2023-04-23T07:10:46;118.28;;;44.13;;
52894;SDS011;38759;53.396;6.722;2023-04-23T07:13:12;112.53;;;42.80;;
52894;SDS011;38759;53.396;6.722;2023-04-23T07:15:38;108.10;;;42.00;;
52894;SDS011;38759;53.396;6.722;2023-04-23T07:18:05;108.07;;;41.67;;
52894;SDS011;38759;53.396;6.722;2023-04-23T07:20:31;110.20;;;42.95;;
52894;SDS011;38759;53.396;6.722;2023-04-23T07:22:57;112.32;;;44.55;;
52894;SDS011;38759;53.396;6.722;2023-04-23T07:25:23;113.30;;;44.70;;
52894;SDS011;38759;53.396;6.722;2023-04-23T07:27:50;106.60;;;41.45;;
52894;SDS011;38759;53.396;6.722;2023-04-23T07:30:16;115.38;;;44.20;;
52894;SDS011;38759;53.396;6.722;2023-04-23T07:32:42;102.82;;;41.25;;
52894;SDS011;38759;53.396;6.722;2023-04-23T07:35:07;99.40;;;40.10;;
52894;SDS011;38759;53.396;6.722;2023-04-23T07:37:35;85.70;;;36.70;;
52894;SDS011;38759;53.396;6.722;2023-04-23T07:40:01;91.57;;;38.42;;
52894;SDS011;38759;53.396;6.722;2023-04-23T07:42:27;77.78;;;35.13;;
52894;SDS011;38759;53.396;6.722;2023-04-23T07:44:53;75.50;;;35.17;;
52894;SDS011;38759;53.396;6.722;2023-04-23T07:47:18;68.88;;;33.15;;
52894;SDS011;38759;53.396;6.722;2023-04-23T07:49:44;66.22;;;30.85;;
52894;SDS011;38759;53.396;6.722;2023-04-23T07:52:10;77.63;;;33.20;;
52894;SDS011;38759;53.396;6.722;2023-04-23T07:54:35;70.45;;;32.15;;
52894;SDS011;38759;53.396;6.722;2023-04-23T07:57:01;62.83;;;28.10;;
52894;SDS011;38759;53.396;6.722;2023-04-23T07:59:28;69.40;;;34.03;;
52894;SDS011;38759;53.396;6.722;2023-04-23T08:01:53;68.10;;;32.13;;
52894;SDS011;38759;53.396;6.722;2023-04-23T08:04:19;67.63;;;32.05;;
52894;SDS011;38759;53.396;6.722;2023-04-23T08:06:45;65.35;;;30.55;;
52894;SDS011;38759;53.396;6.722;2023-04-23T08:09:10;67.70;;;33.30;;
52894;SDS011;38759;53.396;6.722;2023-04-23T08:11:36;67.13;;;33.20;;
52894;SDS011;38759;53.396;6.722;2023-04-23T08:14:02;65.88;;;33.90;;
52894;SDS011;38759;53.396;6.722;2023-04-23T08:16:27;64.38;;;33.22;;
52894;SDS011;38759;53.396;6.722;2023-04-23T08:18:53;67.43;;;32.97;;
52894;SDS011;38759;53.396;6.722;2023-04-23T08:21:19;66.50;;;33.25;;
52894;SDS011;38759;53.396;6.722;2023-04-23T08:23:46;68.47;;;33.03;;
52894;SDS011;38759;53.396;6.722;2023-04-23T08:26:12;67.07;;;31.25;;
52894;SDS011;38759;53.396;6.722;2023-04-23T08:28:37;63.80;;;32.05;;
52894;SDS011;38759;53.396;6.722;2023-04-23T08:31:03;61.08;;;29.85;;
52894;SDS011;38759;53.396;6.722;2023-04-23T08:33:29;65.07;;;34.88;;
52894;SDS011;38759;53.396;6.722;2023-04-23T08:35:54;63.38;;;31.80;;
52894;SDS011;38759;53.396;6.722;2023-04-23T08:38:20;58.60;;;29.83;;
52894;SDS011;38759;53.396;6.722;2023-04-23T08:40:46;59.65;;;30.35;;
52894;SDS011;38759;53.396;6.722;2023-04-23T08:43:20;59.17;;;30.17;;
52894;SDS011;38759;53.396;6.722;2023-04-23T08:45:55;56.08;;;28.85;;
52894;SDS011;38759;53.396;6.722;2023-04-23T08:48:22;50.63;;;25.58;;
52894;SDS011;38759;53.396;6.722;2023-04-23T08:50:48;47.60;;;26.65;;
52894;SDS011;38759;53.396;6.722;2023-04-23T08:53:17;50.10;;;24.77;;
52894;SDS011;38759;53.396;6.722;2023-04-23T08:55:44;48.97;;;26.30;;
52894;SDS011;38759;53.396;6.722;2023-04-23T08:58:09;50.20;;;24.60;;
52894;SDS011;38759;53.396;6.722;2023-04-23T09:00:36;48.53;;;25.15;;
52894;SDS011;38759;53.396;6.722;2023-04-23T09:03:02;43.30;;;24.48;;
52894;SDS011;38759;53.396;6.722;2023-04-23T09:05:28;42.33;;;26.70;;
52894;SDS011;38759;53.396;6.722;2023-04-23T09:07:55;39.65;;;21.70;;
52894;SDS011;38759;53.396;6.722;2023-04-23T09:10:22;41.88;;;23.40;;
52894;SDS011;38759;53.396;6.722;2023-04-23T09:12:48;42.47;;;23.75;;
52894;SDS011;38759;53.396;6.722;2023-04-23T09:15:14;36.80;;;21.33;;
52894;SDS011;38759;53.396;6.722;2023-04-23T09:17:41;39.53;;;27.48;;
52894;SDS011;38759;53.396;6.722;2023-04-23T09:20:10;36.05;;;19.83;;
52894;SDS011;38759;53.396;6.722;2023-04-23T09:22:40;39.15;;;29.50;;
52894;SDS011;38759;53.396;6.722;2023-04-23T09:25:12;38.78;;;19.38;;
52894;SDS011;38759;53.396;6.722;2023-04-23T09:27:40;34.85;;;18.92;;
52894;SDS011;38759;53.396;6.722;2023-04-23T09:30:06;33.17;;;20.63;;
52894;SDS011;38759;53.396;6.722;2023-04-23T09:32:35;35.53;;;18.05;;
52894;SDS011;38759;53.396;6.722;2023-04-23T09:35:06;34.75;;;24.88;;
52894;SDS011;38759;53.396;6.722;2023-04-23T09:37:34;31.10;;;22.83;;
52894;SDS011;38759;53.396;6.722;2023-04-23T09:40:04;32.53;;;19.58;;
52894;SDS011;38759;53.396;6.722;2023-04-23T09:42:33;31.40;;;16.35;;
52894;SDS011;38759;53.396;6.722;2023-04-23T09:45:04;27.75;;;13.88;;
52894;SDS011;38759;53.396;6.722;2023-04-23T09:47:32;22.50;;;18.35;;
52894;SDS011;38759;53.396;6.722;2023-04-23T09:50:05;23.30;;;14.15;;
52894;SDS011;38759;53.396;6.722;2023-04-23T09:52:37;26.77;;;15.65;;
52894;SDS011;38759;53.396;6.722;2023-04-23T09:55:03;23.13;;;17.30;;
52894;SDS011;38759;53.396;6.722;2023-04-23T09:57:31;24.88;;;18.05;;
52894;SDS011;38759;53.396;6.722;2023-04-23T10:00:11;26.08;;;17.30;;
52894;SDS011;38759;53.396;6.722;2023-04-23T10:02:44;20.00;;;12.05;;
52894;SDS011;38759;53.396;6.722;2023-04-23T10:05:20;22.20;;;14.73;;
52894;SDS011;38759;53.396;6.722;2023-04-23T10:07:47;20.30;;;14.75;;
52894;SDS011;38759;53.396;6.722;2023-04-23T10:10:16;20.25;;;14.07;;
52894;SDS011;38759;53.396;6.722;2023-04-23T10:12:43;21.30;;;14.27;;
52894;SDS011;38759;53.396;6.722;2023-04-23T10:15:10;20.17;;;13.68;;
52894;SDS011;38759;53.396;6.722;2023-04-23T10:17:36;19.95;;;14.82;;
52894;SDS011;38759;53.396;6.722;2023-04-23T10:20:04;19.90;;;10.10;;
52894;SDS011;38759;53.396;6.722;2023-04-23T10:22:34;16.08;;;11.55;;
52894;SDS011;38759;53.396;6.722;2023-04-23T10:25:07;18.20;;;12.02;;
52894;SDS011;38759;53.396;6.722;2023-04-23T10:27:39;16.83;;;10.52;;
52894;SDS011;38759;53.396;6.722;2023-04-23T10:30:10;16.10;;;10.95;;
52894;SDS011;38759;53.396;6.722;2023-04-23T10:32:37;18.67;;;8.65;;
52894;SDS011;38759;53.396;6.722;2023-04-23T10:35:04;16.33;;;8.48;;
52894;SDS011;38759;53.396;6.722;2023-04-23T10:37:30;15.30;;;8.18;;
52894;SDS011;38759;53.396;6.722;2023-04-23T10:40:00;14.98;;;8.95;;
52894;SDS011;38759;53.396;6.722;2023-04-23T10:42:47;17.98;;;8.93;;
52894;SDS011;38759;53.396;6.722;2023-04-23T10:45:14;17.75;;;9.57;;
52894;SDS011;38759;53.396;6.722;2023-04-23T10:47:44;16.23;;;8.10;;
52894;SDS011;38759;53.396;6.722;2023-04-23T10:52:51;13.63;;;9.80;;
52894;SDS011;38759;53.396;6.722;2023-04-23T10:55:25;15.10;;;10.30;;
52894;SDS011;38759;53.396;6.722;2023-04-23T10:58:00;15.98;;;10.20;;
52894;SDS011;38759;53.396;6.722;2023-04-23T11:00:28;14.93;;;8.73;;
52894;SDS011;38759;53.396;6.722;2023-04-23T11:03:29;15.18;;;8.68;;
52894;SDS011;38759;53.396;6.722;2023-04-23T11:06:00;13.73;;;8.60;;
52894;SDS011;38759;53.396;6.722;2023-04-23T11:08:27;16.17;;;7.32;;
52894;SDS011;38759;53.396;6.722;2023-04-23T11:10:57;14.70;;;7.53;;
52894;SDS011;38759;53.396;6.722;2023-04-23T11:13:25;13.05;;;6.13;;
